sensor_id;sensor_type;location;lat;lon;timestamp;pressure;altitude;pressure_sealevel;temperature;humidity
18987;BME280;9627;59.236;18.142;2023-03-16T00:02:20;100558.56;;;-3.89;100.00
18987;BME280;9627;59.236;18.142;2023-03-16T00:04:48;100556.16;;;-3.92;100.00
18987;BME280;9627;59.236;18.142;2023-03-16T00:07:15;100559.59;;;-3.92;100.00
18987;BME280;9627;59.236;18.142;2023-03-16T00:09:42;100565.50;;;-3.90;100.00
18987;BME280;9627;59.236;18.142;2023-03-16T00:12:11;100562.72;;;-3.87;100.00
18987;BME280;9627;59.236;18.142;2023-03-16T00:14:40;100575.31;;;-3.95;100.00
18987;BME280;9627;59.236;18.142;2023-03-16T00:17:08;100571.44;;;-4.02;100.00
18987;BME280;9627;59.236;18.142;2023-03-16T00:19:36;100577.09;;;-4.09;100.00
18987;BME280;9627;59.236;18.142;2023-03-16T00:22:03;100582.66;;;-4.15;100.00
18987;BME280;9627;59.236;18.142;2023-03-16T00:24:30;100579.81;;;-4.11;100.00
18987;BME280;9627;59.236;18.142;2023-03-16T00:26:57;100585.09;;;-4.12;100.00
18987;BME280;9627;59.236;18.142;2023-03-16T00:29:25;100577.84;;;-4.21;100.00
18987;BME280;9627;59.236;18.142;2023-03-16T00:31:52;100580.00;;;-4.42;100.00
18987;BME280;9627;59.236;18.142;2023-03-16T00:34:19;100582.91;;;-4.46;100.00
18987;BME280;9627;59.236;18.142;2023-03-16T00:36:48;100582.16;;;-4.48;100.00
18987;BME280;9627;59.236;18.142;2023-03-16T00:39:16;100588.44;;;-4.52;100.00
18987;BME280;9627;59.236;18.142;2023-03-16T00:41:43;100587.69;;;-4.40;100.00
18987;BME280;9627;59.236;18.142;2023-03-16T00:44:10;100589.00;;;-4.47;100.00
18987;BME280;9627;59.236;18.142;2023-03-16T00:46:37;100593.91;;;-4.43;100.00
18987;BME280;9627;59.236;18.142;2023-03-16T00:49:04;100595.28;;;-4.37;100.00
18987;BME280;9627;59.236;18.142;2023-03-16T00:51:31;100596.31;;;-4.26;100.00
18987;BME280;9627;59.236;18.142;2023-03-16T00:53:59;100607.78;;;-4.16;100.00
18987;BME280;9627;59.236;18.142;2023-03-16T00:56:28;100600.53;;;-4.11;100.00
18987;BME280;9627;59.236;18.142;2023-03-16T00:58:55;100603.34;;;-4.14;100.00
18987;BME280;9627;59.236;18.142;2023-03-16T01:01:23;100613.50;;;-4.25;100.00
18987;BME280;9627;59.236;18.142;2023-03-16T01:03:51;100619.44;;;-4.23;100.00
18987;BME280;9627;59.236;18.142;2023-03-16T01:06:19;100619.81;;;-4.29;100.00
18987;BME280;9627;59.236;18.142;2023-03-16T01:08:46;100619.63;;;-4.26;100.00
18987;BME280;9627;59.236;18.142;2023-03-16T01:11:15;100617.78;;;-4.24;100.00
18987;BME280;9627;59.236;18.142;2023-03-16T01:13:43;100627.22;;;-4.23;100.00
18987;BME280;9627;59.236;18.142;2023-03-16T01:16:11;100621.28;;;-4.25;100.00
18987;BME280;9627;59.236;18.142;2023-03-16T01:18:39;100627.41;;;-4.26;100.00
18987;BME280;9627;59.236;18.142;2023-03-16T01:21:07;100638.34;;;-4.35;100.00
18987;BME280;9627;59.236;18.142;2023-03-16T01:23:34;100639.06;;;-4.47;100.00
18987;BME280;9627;59.236;18.142;2023-03-16T01:26:01;100644.97;;;-4.59;100.00
18987;BME280;9627;59.236;18.142;2023-03-16T01:28:30;100644.84;;;-4.57;100.00
18987;BME280;9627;59.236;18.142;2023-03-16T01:30:59;100658.84;;;-4.60;100.00
18987;BME280;9627;59.236;18.142;2023-03-16T01:33:26;100672.34;;;-4.69;100.00
18987;BME280;9627;59.236;18.142;2023-03-16T01:35:54;100675.66;;;-4.67;100.00
18987;BME280;9627;59.236;18.142;2023-03-16T01:38:21;100682.97;;;-4.74;100.00
18987;BME280;9627;59.236;18.142;2023-03-16T01:40:48;100677.63;;;-4.86;100.00
18987;BME280;9627;59.236;18.142;2023-03-16T01:43:16;100679.97;;;-4.82;100.00
18987;BME280;9627;59.236;18.142;2023-03-16T01:48:36;100683.25;;;-4.94;100.00
18987;BME280;9627;59.236;18.142;2023-03-16T01:51:04;100687.28;;;-4.88;100.00
18987;BME280;9627;59.236;18.142;2023-03-16T01:53:33;100692.69;;;-4.93;100.00
18987;BME280;9627;59.236;18.142;2023-03-16T01:56:00;100692.50;;;-4.90;100.00
18987;BME280;9627;59.236;18.142;2023-03-16T01:58:29;100693.75;;;-4.81;100.00
18987;BME280;9627;59.236;18.142;2023-03-16T02:00:56;100701.22;;;-4.91;100.00
18987;BME280;9627;59.236;18.142;2023-03-16T02:03:24;100702.25;;;-5.09;100.00
18987;BME280;9627;59.236;18.142;2023-03-16T02:05:55;100706.53;;;-5.23;100.00
18987;BME280;9627;59.236;18.142;2023-03-16T02:08:25;100717.22;;;-5.29;100.00
18987;BME280;9627;59.236;18.142;2023-03-16T02:10:52;100715.28;;;-5.26;100.00
18987;BME280;9627;59.236;18.142;2023-03-16T02:13:21;100723.66;;;-5.36;100.00
18987;BME280;9627;59.236;18.142;2023-03-16T02:15:49;100735.00;;;-5.39;100.00
18987;BME280;9627;59.236;18.142;2023-03-16T02:18:17;100728.63;;;-5.49;100.00
18987;BME280;9627;59.236;18.142;2023-03-16T02:20:47;100732.34;;;-5.53;100.00
18987;BME280;9627;59.236;18.142;2023-03-16T02:23:18;100732.34;;;-5.53;100.00
18987;BME280;9627;59.236;18.142;2023-03-16T02:25:48;100737.50;;;-5.53;100.00
18987;BME280;9627;59.236;18.142;2023-03-16T02:28:20;100737.56;;;-5.54;100.00
18987;BME280;9627;59.236;18.142;2023-03-16T02:30:52;100735.16;;;-5.57;100.00
18987;BME280;9627;59.236;18.142;2023-03-16T02:33:19;100740.47;;;-5.60;100.00
18987;BME280;9627;59.236;18.142;2023-03-16T02:35:46;100740.66;;;-5.48;100.00
18987;BME280;9627;59.236;18.142;2023-03-16T02:38:14;100742.00;;;-5.41;100.00
18987;BME280;9627;59.236;18.142;2023-03-16T02:40:41;100751.50;;;-5.41;100.00
18987;BME280;9627;59.236;18.142;2023-03-16T02:43:09;100754.28;;;-5.44;100.00
18987;BME280;9627;59.236;18.142;2023-03-16T02:45:38;100765.88;;;-5.36;100.00
18987;BME280;9627;59.236;18.142;2023-03-16T02:48:08;100770.78;;;-5.31;100.00
18987;BME280;9627;59.236;18.142;2023-03-16T02:50:45;100767.78;;;-5.24;100.00
18987;BME280;9627;59.236;18.142;2023-03-16T02:53:13;100770.38;;;-5.24;100.00
18987;BME280;9627;59.236;18.142;2023-03-16T02:55:41;100774.97;;;-5.29;100.00
18987;BME280;9627;59.236;18.142;2023-03-16T02:58:09;100773.47;;;-5.33;100.00
18987;BME280;9627;59.236;18.142;2023-03-16T03:00:36;100779.75;;;-5.21;100.00
18987;BME280;9627;59.236;18.142;2023-03-16T03:03:03;100782.09;;;-5.17;100.00
18987;BME280;9627;59.236;18.142;2023-03-16T03:05:32;100775.75;;;-5.11;100.00
18987;BME280;9627;59.236;18.142;2023-03-16T03:07:59;100777.06;;;-5.04;100.00
18987;BME280;9627;59.236;18.142;2023-03-16T03:10:26;100776.41;;;-5.08;100.00
18987;BME280;9627;59.236;18.142;2023-03-16T03:12:53;100781.72;;;-5.11;100.00
18987;BME280;9627;59.236;18.142;2023-03-16T03:15:22;100784.41;;;-5.12;100.00
18987;BME280;9627;59.236;18.142;2023-03-16T03:17:49;100795.94;;;-5.18;100.00
18987;BME280;9627;59.236;18.142;2023-03-16T03:20:16;100798.41;;;-5.32;100.00
18987;BME280;9627;59.236;18.142;2023-03-16T03:22:46;100786.06;;;-5.42;100.00
18987;BME280;9627;59.236;18.142;2023-03-16T03:25:15;100802.44;;;-5.42;100.00
18987;BME280;9627;59.236;18.142;2023-03-16T03:27:42;100811.19;;;-5.44;100.00
18987;BME280;9627;59.236;18.142;2023-03-16T03:30:10;100813.72;;;-5.27;100.00
18987;BME280;9627;59.236;18.142;2023-03-16T03:32:38;100820.41;;;-5.23;100.00
18987;BME280;9627;59.236;18.142;2023-03-16T03:35:05;100824.50;;;-5.19;100.00
18987;BME280;9627;59.236;18.142;2023-03-16T03:37:33;100829.06;;;-5.09;100.00
18987;BME280;9627;59.236;18.142;2023-03-16T03:40:02;100832.69;;;-5.11;100.00
18987;BME280;9627;59.236;18.142;2023-03-16T03:42:35;100830.34;;;-5.16;100.00
18987;BME280;9627;59.236;18.142;2023-03-16T03:45:03;100824.66;;;-5.38;100.00
18987;BME280;9627;59.236;18.142;2023-03-16T03:47:30;100830.63;;;-5.53;100.00
18987;BME280;9627;59.236;18.142;2023-03-16T03:49:56;100836.44;;;-5.65;100.00
18987;BME280;9627;59.236;18.142;2023-03-16T03:52:23;100830.41;;;-5.66;100.00
18987;BME280;9627;59.236;18.142;2023-03-16T03:54:51;100840.13;;;-5.53;100.00
18987;BME280;9627;59.236;18.142;2023-03-16T03:57:19;100838.88;;;-5.46;100.00
18987;BME280;9627;59.236;18.142;2023-03-16T03:59:46;100842.63;;;-5.52;100.00
18987;BME280;9627;59.236;18.142;2023-03-16T04:02:13;100835.94;;;-5.56;100.00
18987;BME280;9627;59.236;18.142;2023-03-16T04:04:40;100850.03;;;-5.61;100.00
18987;BME280;9627;59.236;18.142;2023-03-16T04:07:08;100849.06;;;-5.59;100.00
18987;BME280;9627;59.236;18.142;2023-03-16T04:09:35;100849.63;;;-5.54;100.00
18987;BME280;9627;59.236;18.142;2023-03-16T04:12:03;100855.47;;;-5.50;100.00
18987;BME280;9627;59.236;18.142;2023-03-16T04:14:33;100860.16;;;-5.41;100.00
18987;BME280;9627;59.236;18.142;2023-03-16T04:17:00;100855.84;;;-5.41;100.00
18987;BME280;9627;59.236;18.142;2023-03-16T04:19:28;100853.91;;;-5.37;100.00
18987;BME280;9627;59.236;18.142;2023-03-16T04:21:55;100866.53;;;-5.31;100.00
18987;BME280;9627;59.236;18.142;2023-03-16T04:24:23;100875.59;;;-5.23;100.00
18987;BME280;9627;59.236;18.142;2023-03-16T04:26:49;100874.50;;;-5.19;100.00
18987;BME280;9627;59.236;18.142;2023-03-16T04:29:18;100870.50;;;-5.09;100.00
18987;BME280;9627;59.236;18.142;2023-03-16T04:31:47;100870.84;;;-5.15;100.00
18987;BME280;9627;59.236;18.142;2023-03-16T04:34:15;100881.75;;;-5.25;100.00
18987;BME280;9627;59.236;18.142;2023-03-16T04:36:42;100874.31;;;-5.31;100.00
18987;BME280;9627;59.236;18.142;2023-03-16T04:39:09;100871.97;;;-5.20;100.00
18987;BME280;9627;59.236;18.142;2023-03-16T04:41:36;100874.56;;;-5.20;100.00
18987;BME280;9627;59.236;18.142;2023-03-16T04:44:03;100885.53;;;-5.15;100.00
18987;BME280;9627;59.236;18.142;2023-03-16T04:46:30;100881.13;;;-5.13;100.00
18987;BME280;9627;59.236;18.142;2023-03-16T04:48:59;100878.94;;;-5.05;100.00
18987;BME280;9627;59.236;18.142;2023-03-16T04:51:26;100879.63;;;-5.02;100.00
18987;BME280;9627;59.236;18.142;2023-03-16T04:53:54;100888.97;;;-4.99;100.00
18987;BME280;9627;59.236;18.142;2023-03-16T04:56:21;100893.16;;;-4.97;100.00
18987;BME280;9627;59.236;18.142;2023-03-16T04:58:49;100897.34;;;-4.94;100.00
18987;BME280;9627;59.236;18.142;2023-03-16T05:01:16;100899.84;;;-4.93;100.00
18987;BME280;9627;59.236;18.142;2023-03-16T05:03:43;100904.78;;;-4.88;100.00
18987;BME280;9627;59.236;18.142;2023-03-16T05:06:12;100912.56;;;-4.88;100.00
18987;BME280;9627;59.236;18.142;2023-03-16T05:08:39;100911.44;;;-4.84;100.00
18987;BME280;9627;59.236;18.142;2023-03-16T05:11:06;100913.22;;;-4.85;100.00
18987;BME280;9627;59.236;18.142;2023-03-16T05:13:33;100919.31;;;-4.86;100.00
18987;BME280;9627;59.236;18.142;2023-03-16T05:16:00;100918.56;;;-4.72;100.00
18987;BME280;9627;59.236;18.142;2023-03-16T05:18:27;100928.00;;;-4.40;100.00
18987;BME280;9627;59.236;18.142;2023-03-16T05:20:55;100928.84;;;-4.24;100.00
18987;BME280;9627;59.236;18.142;2023-03-16T05:23:23;100929.97;;;-3.68;100.00
18987;BME280;9627;59.236;18.142;2023-03-16T05:25:50;100941.66;;;-2.49;100.00
18987;BME280;9627;59.236;18.142;2023-03-16T05:28:17;100940.09;;;-1.59;100.00
18987;BME280;9627;59.236;18.142;2023-03-16T05:30:45;100940.44;;;-0.88;100.00
18987;BME280;9627;59.236;18.142;2023-03-16T05:33:12;100951.44;;;-0.23;100.00
18987;BME280;9627;59.236;18.142;2023-03-16T05:35:39;100943.78;;;0.45;100.00
18987;BME280;9627;59.236;18.142;2023-03-16T05:38:07;100946.25;;;1.03;100.00
18987;BME280;9627;59.236;18.142;2023-03-16T05:40:36;100956.97;;;1.33;100.00
18987;BME280;9627;59.236;18.142;2023-03-16T05:43:03;100956.63;;;1.92;100.00
18987;BME280;9627;59.236;18.142;2023-03-16T05:45:30;100964.97;;;2.28;100.00
18987;BME280;9627;59.236;18.142;2023-03-16T05:47:58;100971.97;;;2.80;100.00
18987;BME280;9627;59.236;18.142;2023-03-16T05:50:24;100966.63;;;3.12;100.00
18987;BME280;9627;59.236;18.142;2023-03-16T05:52:52;100975.22;;;3.53;100.00
18987;BME280;9627;59.236;18.142;2023-03-16T05:55:19;100988.47;;;4.01;100.00
18987;BME280;9627;59.236;18.142;2023-03-16T05:57:49;100984.63;;;4.24;100.00
18987;BME280;9627;59.236;18.142;2023-03-16T06:00:16;100990.59;;;4.55;100.00
18987;BME280;9627;59.236;18.142;2023-03-16T06:02:45;101001.34;;;4.90;100.00
18987;BME280;9627;59.236;18.142;2023-03-16T06:05:13;101017.25;;;4.98;100.00
18987;BME280;9627;59.236;18.142;2023-03-16T06:07:40;101027.44;;;5.30;100.00
18987;BME280;9627;59.236;18.142;2023-03-16T06:10:08;101036.91;;;5.59;100.00
18987;BME280;9627;59.236;18.142;2023-03-16T06:12:35;101042.13;;;5.69;100.00
18987;BME280;9627;59.236;18.142;2023-03-16T06:15:04;101049.63;;;6.01;100.00
18987;BME280;9627;59.236;18.142;2023-03-16T06:17:33;101060.50;;;6.42;100.00
18987;BME280;9627;59.236;18.142;2023-03-16T06:20:00;101067.44;;;6.79;100.00
18987;BME280;9627;59.236;18.142;2023-03-16T06:22:27;101065.19;;;7.09;100.00
18987;BME280;9627;59.236;18.142;2023-03-16T06:24:54;101082.09;;;7.16;100.00
18987;BME280;9627;59.236;18.142;2023-03-16T06:27:21;101080.47;;;7.41;100.00
18987;BME280;9627;59.236;18.142;2023-03-16T06:29:50;101092.72;;;7.50;100.00
18987;BME280;9627;59.236;18.142;2023-03-16T06:32:19;101097.56;;;7.55;100.00
18987;BME280;9627;59.236;18.142;2023-03-16T06:34:46;101100.00;;;7.82;100.00
18987;BME280;9627;59.236;18.142;2023-03-16T06:37:13;101104.75;;;8.04;100.00
18987;BME280;9627;59.236;18.142;2023-03-16T06:39:40;101117.84;;;8.13;100.00
18987;BME280;9627;59.236;18.142;2023-03-16T06:42:08;101119.47;;;8.06;100.00
18987;BME280;9627;59.236;18.142;2023-03-16T06:44:35;101126.25;;;7.75;100.00
18987;BME280;9627;59.236;18.142;2023-03-16T06:47:03;101119.66;;;8.47;100.00
18987;BME280;9627;59.236;18.142;2023-03-16T06:49:32;101122.78;;;8.42;100.00
18987;BME280;9627;59.236;18.142;2023-03-16T06:51:59;101127.81;;;8.77;100.00
18987;BME280;9627;59.236;18.142;2023-03-16T06:54:27;101141.28;;;9.16;100.00
18987;BME280;9627;59.236;18.142;2023-03-16T06:56:56;101148.72;;;9.04;100.00
18987;BME280;9627;59.236;18.142;2023-03-16T06:59:23;101149.53;;;8.97;100.00
18987;BME280;9627;59.236;18.142;2023-03-16T07:01:50;101162.66;;;9.22;100.00
18987;BME280;9627;59.236;18.142;2023-03-16T07:04:17;101168.44;;;9.66;100.00
18987;BME280;9627;59.236;18.142;2023-03-16T07:06:46;101166.28;;;9.54;100.00
18987;BME280;9627;59.236;18.142;2023-03-16T07:09:12;101182.16;;;9.86;100.00
18987;BME280;9627;59.236;18.142;2023-03-16T07:11:39;101182.16;;;9.86;100.00
18987;BME280;9627;59.236;18.142;2023-03-16T07:14:06;101185.06;;;10.31;100.00
18987;BME280;9627;59.236;18.142;2023-03-16T07:16:33;101198.53;;;10.30;100.00
18987;BME280;9627;59.236;18.142;2023-03-16T07:19:00;101194.97;;;10.76;100.00
18987;BME280;9627;59.236;18.142;2023-03-16T07:21:27;101207.88;;;10.56;100.00
18987;BME280;9627;59.236;18.142;2023-03-16T07:23:57;101214.22;;;10.39;100.00
18987;BME280;9627;59.236;18.142;2023-03-16T07:26:25;101213.06;;;10.80;100.00
18987;BME280;9627;59.236;18.142;2023-03-16T07:28:52;101223.53;;;11.04;100.00
18987;BME280;9627;59.236;18.142;2023-03-16T07:31:19;101223.81;;;10.56;100.00
18987;BME280;9627;59.236;18.142;2023-03-16T07:33:46;101239.94;;;10.77;100.00
18987;BME280;9627;59.236;18.142;2023-03-16T07:36:13;101237.00;;;10.72;100.00
18987;BME280;9627;59.236;18.142;2023-03-16T07:38:40;101241.34;;;10.65;100.00
18987;BME280;9627;59.236;18.142;2023-03-16T07:41:09;101235.72;;;10.91;100.00
18987;BME280;9627;59.236;18.142;2023-03-16T07:43:36;101239.09;;;10.46;100.00
18987;BME280;9627;59.236;18.142;2023-03-16T07:46:03;101247.88;;;10.47;100.00
18987;BME280;9627;59.236;18.142;2023-03-16T07:48:30;101239.16;;;11.07;100.00
18987;BME280;9627;59.236;18.142;2023-03-16T07:50:57;101250.78;;;11.52;100.00
18987;BME280;9627;59.236;18.142;2023-03-16T07:53:24;101253.34;;;11.45;100.00
18987;BME280;9627;59.236;18.142;2023-03-16T07:55:51;101259.59;;;11.52;100.00
18987;BME280;9627;59.236;18.142;2023-03-16T07:58:20;101260.03;;;11.10;100.00
18987;BME280;9627;59.236;18.142;2023-03-16T08:00:47;101256.94;;;11.52;100.00
18987;BME280;9627;59.236;18.142;2023-03-16T08:03:14;101260.91;;;11.56;100.00
18987;BME280;9627;59.236;18.142;2023-03-16T08:05:41;101260.91;;;11.56;100.00
18987;BME280;9627;59.236;18.142;2023-03-16T08:08:08;101265.19;;;11.65;100.00
18987;BME280;9627;59.236;18.142;2023-03-16T08:10:36;101268.16;;;12.07;100.00
18987;BME280;9627;59.236;18.142;2023-03-16T08:13:03;101267.81;;;12.25;100.00
18987;BME280;9627;59.236;18.142;2023-03-16T08:15:32;101284.63;;;11.66;100.00
18987;BME280;9627;59.236;18.142;2023-03-16T08:17:59;101294.50;;;11.80;100.00
18987;BME280;9627;59.236;18.142;2023-03-16T08:20:27;101291.44;;;11.91;100.00
18987;BME280;9627;59.236;18.142;2023-03-16T08:22:54;101300.22;;;12.14;100.00
18987;BME280;9627;59.236;18.142;2023-03-16T08:25:21;101303.25;;;11.66;100.00
18987;BME280;9627;59.236;18.142;2023-03-16T08:27:48;101305.06;;;11.88;100.00
18987;BME280;9627;59.236;18.142;2023-03-16T08:30:16;101305.97;;;12.03;100.00
18987;BME280;9627;59.236;18.142;2023-03-16T08:32:45;101315.25;;;11.84;100.00
18987;BME280;9627;59.236;18.142;2023-03-16T08:35:13;101315.38;;;11.91;100.00
18987;BME280;9627;59.236;18.142;2023-03-16T08:37:40;101315.94;;;12.38;100.00
18987;BME280;9627;59.236;18.142;2023-03-16T08:40:08;101315.41;;;12.57;100.00
18987;BME280;9627;59.236;18.142;2023-03-16T08:42:38;101312.63;;;12.36;100.00
18987;BME280;9627;59.236;18.142;2023-03-16T08:45:06;101322.75;;;12.55;99.83
18987;BME280;9627;59.236;18.142;2023-03-16T08:47:34;101323.41;;;12.43;100.00
18987;BME280;9627;59.236;18.142;2023-03-16T08:50:02;101328.47;;;12.67;100.00
18987;BME280;9627;59.236;18.142;2023-03-16T08:52:30;101330.81;;;12.47;100.00
18987;BME280;9627;59.236;18.142;2023-03-16T08:54:57;101348.75;;;11.71;100.00
18987;BME280;9627;59.236;18.142;2023-03-16T08:57:24;101353.28;;;12.30;100.00
18987;BME280;9627;59.236;18.142;2023-03-16T08:59:52;101354.91;;;11.94;100.00
18987;BME280;9627;59.236;18.142;2023-03-16T09:02:19;101367.72;;;12.13;100.00
18987;BME280;9627;59.236;18.142;2023-03-16T09:04:46;101358.88;;;12.72;100.00
18987;BME280;9627;59.236;18.142;2023-03-16T09:07:15;101364.56;;;12.69;95.04
18987;BME280;9627;59.236;18.142;2023-03-16T09:09:42;101364.81;;;12.23;98.10
18987;BME280;9627;59.236;18.142;2023-03-16T09:12:10;101375.00;;;12.19;99.78
18987;BME280;9627;59.236;18.142;2023-03-16T09:14:38;101378.13;;;12.23;97.73
18987;BME280;9627;59.236;18.142;2023-03-16T09:17:05;101377.16;;;12.75;100.00
18987;BME280;9627;59.236;18.142;2023-03-16T09:19:33;101383.22;;;12.69;98.14
18987;BME280;9627;59.236;18.142;2023-03-16T09:22:00;101390.25;;;12.62;98.61
18987;BME280;9627;59.236;18.142;2023-03-16T09:24:29;101394.94;;;12.23;99.82
18987;BME280;9627;59.236;18.142;2023-03-16T09:26:56;101389.41;;;12.10;100.00
18987;BME280;9627;59.236;18.142;2023-03-16T09:29:24;101393.81;;;11.72;100.00
18987;BME280;9627;59.236;18.142;2023-03-16T09:31:52;101393.88;;;12.09;96.75
18987;BME280;9627;59.236;18.142;2023-03-16T09:34:19;101403.31;;;11.59;89.18
18987;BME280;9627;59.236;18.142;2023-03-16T09:36:46;101392.22;;;11.86;98.34
18987;BME280;9627;59.236;18.142;2023-03-16T09:39:14;101399.34;;;12.16;100.00
18987;BME280;9627;59.236;18.142;2023-03-16T09:41:45;101401.88;;;11.87;97.97
18987;BME280;9627;59.236;18.142;2023-03-16T09:44:19;101407.78;;;11.97;98.44
18987;BME280;9627;59.236;18.142;2023-03-16T09:46:49;101416.47;;;12.13;100.00
18987;BME280;9627;59.236;18.142;2023-03-16T09:49:19;101416.63;;;12.57;93.35
18987;BME280;9627;59.236;18.142;2023-03-16T09:51:49;101421.00;;;11.82;88.67
18987;BME280;9627;59.236;18.142;2023-03-16T09:54:19;101431.50;;;11.84;89.21
18987;BME280;9627;59.236;18.142;2023-03-16T09:56:50;101430.09;;;11.18;97.73
18987;BME280;9627;59.236;18.142;2023-03-16T09:59:18;101423.03;;;11.42;98.40
18987;BME280;9627;59.236;18.142;2023-03-16T10:01:51;101429.50;;;11.39;89.08
18987;BME280;9627;59.236;18.142;2023-03-16T10:04:25;101434.88;;;11.23;95.74
18987;BME280;9627;59.236;18.142;2023-03-16T10:07:00;101438.13;;;10.86;100.00
18987;BME280;9627;59.236;18.142;2023-03-16T10:09:31;101433.28;;;11.53;100.00
18987;BME280;9627;59.236;18.142;2023-03-16T10:12:04;101434.91;;;11.54;90.43
18987;BME280;9627;59.236;18.142;2023-03-16T10:14:36;101437.72;;;11.60;89.75
18987;BME280;9627;59.236;18.142;2023-03-16T10:17:04;101444.44;;;12.09;95.74
18987;BME280;9627;59.236;18.142;2023-03-16T10:19:35;101445.69;;;11.60;100.00
18987;BME280;9627;59.236;18.142;2023-03-16T10:22:08;101451.88;;;11.53;90.63
18987;BME280;9627;59.236;18.142;2023-03-16T10:24:40;101453.22;;;11.49;100.00
18987;BME280;9627;59.236;18.142;2023-03-16T10:27:13;101451.63;;;11.32;100.00
18987;BME280;9627;59.236;18.142;2023-03-16T10:29:42;101448.84;;;11.64;99.70
18987;BME280;9627;59.236;18.142;2023-03-16T10:32:11;101450.75;;;10.76;100.00
18987;BME280;9627;59.236;18.142;2023-03-16T10:34:38;101459.34;;;10.94;100.00
18987;BME280;9627;59.236;18.142;2023-03-16T10:37:07;101461.41;;;10.52;100.00
18987;BME280;9627;59.236;18.142;2023-03-16T10:39:38;101461.69;;;10.81;100.00
18987;BME280;9627;59.236;18.142;2023-03-16T10:42:08;101468.56;;;9.94;100.00
18987;BME280;9627;59.236;18.142;2023-03-16T10:44:41;101468.41;;;9.95;100.00
18987;BME280;9627;59.236;18.142;2023-03-16T10:47:12;101479.25;;;10.10;100.00
18987;BME280;9627;59.236;18.142;2023-03-16T10:49:43;101476.41;;;9.62;100.00
18987;BME280;9627;59.236;18.142;2023-03-16T10:52:15;101472.97;;;10.19;100.00
18987;BME280;9627;59.236;18.142;2023-03-16T10:54:47;101481.44;;;10.87;100.00
18987;BME280;9627;59.236;18.142;2023-03-16T10:57:19;101481.13;;;10.42;100.00
18987;BME280;9627;59.236;18.142;2023-03-16T10:59:48;101484.22;;;10.13;100.00
18987;BME280;9627;59.236;18.142;2023-03-16T11:02:16;101483.97;;;10.56;100.00
18987;BME280;9627;59.236;18.142;2023-03-16T11:04:44;101475.13;;;10.96;100.00
18987;BME280;9627;59.236;18.142;2023-03-16T11:07:14;101485.44;;;10.51;100.00
18987;BME280;9627;59.236;18.142;2023-03-16T11:09:42;101483.28;;;10.70;100.00
18987;BME280;9627;59.236;18.142;2023-03-16T11:12:12;101485.94;;;10.70;100.00
18987;BME280;9627;59.236;18.142;2023-03-16T11:14:41;101492.16;;;11.26;100.00
18987;BME280;9627;59.236;18.142;2023-03-16T11:17:11;101497.50;;;11.17;100.00
18987;BME280;9627;59.236;18.142;2023-03-16T11:19:40;101504.69;;;10.85;100.00
18987;BME280;9627;59.236;18.142;2023-03-16T11:22:12;101499.88;;;10.64;100.00
18987;BME280;9627;59.236;18.142;2023-03-16T11:24:43;101495.97;;;10.02;100.00
18987;BME280;9627;59.236;18.142;2023-03-16T11:27:14;101503.56;;;9.56;100.00
18987;BME280;9627;59.236;18.142;2023-03-16T11:29:47;101502.03;;;9.19;100.00
18987;BME280;9627;59.236;18.142;2023-03-16T11:32:20;101512.97;;;9.16;100.00
18987;BME280;9627;59.236;18.142;2023-03-16T11:34:50;101506.16;;;9.48;100.00
18987;BME280;9627;59.236;18.142;2023-03-16T11:37:22;101505.84;;;8.74;100.00
18987;BME280;9627;59.236;18.142;2023-03-16T11:39:54;101502.50;;;9.41;100.00
18987;BME280;9627;59.236;18.142;2023-03-16T11:42:28;101507.81;;;10.16;100.00
18987;BME280;9627;59.236;18.142;2023-03-16T11:44:57;101514.63;;;10.91;100.00
18987;BME280;9627;59.236;18.142;2023-03-16T11:50:11;101512.91;;;9.68;100.00
18987;BME280;9627;59.236;18.142;2023-03-16T11:52:42;101527.13;;;9.67;100.00
18987;BME280;9627;59.236;18.142;2023-03-16T11:55:18;101513.97;;;10.33;100.00
18987;BME280;9627;59.236;18.142;2023-03-16T11:57:52;101520.81;;;9.60;100.00
18987;BME280;9627;59.236;18.142;2023-03-16T12:00:26;101522.41;;;8.93;100.00
18987;BME280;9627;59.236;18.142;2023-03-16T12:03:03;101529.31;;;8.69;100.00
18987;BME280;9627;59.236;18.142;2023-03-16T12:05:39;101526.75;;;8.77;100.00
18987;BME280;9627;59.236;18.142;2023-03-16T12:08:13;101536.75;;;9.08;100.00
18987;BME280;9627;59.236;18.142;2023-03-16T12:10:42;101535.22;;;9.06;100.00
18987;BME280;9627;59.236;18.142;2023-03-16T12:13:15;101539.59;;;8.72;100.00
18987;BME280;9627;59.236;18.142;2023-03-16T12:15:46;101540.81;;;9.20;100.00
18987;BME280;9627;59.236;18.142;2023-03-16T12:18:16;101537.34;;;9.02;100.00
18987;BME280;9627;59.236;18.142;2023-03-16T12:20:49;101548.78;;;9.28;100.00
18987;BME280;9627;59.236;18.142;2023-03-16T12:23:17;101543.41;;;9.12;100.00
18987;BME280;9627;59.236;18.142;2023-03-16T12:25:48;101541.47;;;8.79;100.00
18987;BME280;9627;59.236;18.142;2023-03-16T12:28:20;101546.56;;;7.83;100.00
18987;BME280;9627;59.236;18.142;2023-03-16T12:30:49;101547.66;;;7.53;100.00
18987;BME280;9627;59.236;18.142;2023-03-16T12:33:20;101548.88;;;7.22;100.00
18987;BME280;9627;59.236;18.142;2023-03-16T12:35:56;101547.25;;;6.93;100.00
18987;BME280;9627;59.236;18.142;2023-03-16T12:38:31;101552.41;;;6.56;100.00
18987;BME280;9627;59.236;18.142;2023-03-16T12:41:08;101551.84;;;6.43;100.00
18987;BME280;9627;59.236;18.142;2023-03-16T12:43:40;101546.41;;;6.16;100.00
18987;BME280;9627;59.236;18.142;2023-03-16T12:46:11;101546.00;;;6.49;100.00
18987;BME280;9627;59.236;18.142;2023-03-16T12:48:40;101552.22;;;6.10;100.00
18987;BME280;9627;59.236;18.142;2023-03-16T12:51:12;101550.78;;;5.96;100.00
18987;BME280;9627;59.236;18.142;2023-03-16T12:53:44;101561.31;;;5.87;100.00
18987;BME280;9627;59.236;18.142;2023-03-16T12:56:12;101552.78;;;5.74;100.00